Buynaksk, Russia
Current Conditions -  °F | °C
As of 5:00 AM on Sunday 26 Oct 2014 (Local Time) from URML Reporting Station
Broken Clouds Broken Clouds  
Wind Chill: 19°   Ceiling: 10000
Heat Index: 28°   Visibility: 6mi
Dew Point: 23°   Wind: 11mph
Humidity: 80%   Direction: 340°NNW
Pressure: 30.53"   Gusts: NA
Location:  42.83°N, 47.12°E
Report Text: URML 260200Z 34005MPS 9999 BKN100 M02/M05 Q1034 NOSIG RMKQFE775/1034
Loading
Personal Weather Stations






























Interactive Weather Map
Tropical Storm Tracking
New forecast layout! Learn more

10-Day Weather Forecast

Advertisements
Track Severe Weather on mobile